createdAt,value
2022-10-05T00:01:48.531Z,7.92
2022-10-05T00:04:52.772Z,7.88
2022-10-05T00:07:54.567Z,7.90
2022-10-05T00:10:57.672Z,7.50
2022-10-05T00:13:59.402Z,7.46
2022-10-05T00:17:01.835Z,7.39
2022-10-05T00:20:14.213Z,7.51
2022-10-05T00:23:18.108Z,7.63
2022-10-05T00:26:22.494Z,7.79
2022-10-05T00:29:24.206Z,7.90
2022-10-05T00:32:25.894Z,8.03
2022-10-05T00:35:27.553Z,8.06
2022-10-05T00:38:29.305Z,8.09
2022-10-05T00:41:36.591Z,8.14
2022-10-05T00:44:41.926Z,8.15
2022-10-05T00:47:49.466Z,8.17
2022-10-05T00:51:15.014Z,8.20
2022-10-05T00:54:23.792Z,8.06
2022-10-05T00:57:33.141Z,7.65
2022-10-05T01:00:39.904Z,7.62
2022-10-05T01:03:49.818Z,7.67
2022-10-05T01:06:59.604Z,7.74
2022-10-05T01:10:05.862Z,7.65
2022-10-05T01:13:15.217Z,7.51
2022-10-05T01:16:23.731Z,7.51
2022-10-05T01:19:38.407Z,7.68
2022-10-05T01:22:49.762Z,7.77
2022-10-05T01:25:56.986Z,7.79
2022-10-05T01:29:04.569Z,7.76
2022-10-05T01:32:11.316Z,7.74
2022-10-05T01:35:19.627Z,7.67
2022-10-05T01:38:27.591Z,7.68
2022-10-05T01:41:32.603Z,7.56
2022-10-05T01:44:38.662Z,7.45
2022-10-05T01:47:43.132Z,7.44
2022-10-05T01:50:52.632Z,7.27
2022-10-05T01:53:58.847Z,7.40
2022-10-05T01:57:03.857Z,7.37
2022-10-05T02:00:08.293Z,7.38
2022-10-05T02:03:13.521Z,7.36
2022-10-05T02:06:17.802Z,7.22
2022-10-05T02:09:20.776Z,7.15
2022-10-05T02:12:23.510Z,7.18
2022-10-05T02:15:29.912Z,7.06
2022-10-05T02:18:34.100Z,7.16
2022-10-05T02:21:36.508Z,7.01
2022-10-05T02:24:41.013Z,7.04
2022-10-05T02:27:45.837Z,7.04
2022-10-05T02:30:51.716Z,6.89
2022-10-05T02:34:13.382Z,6.92
2022-10-05T02:37:20.300Z,7.03
2022-10-05T02:40:28.172Z,6.90
2022-10-05T02:43:34.478Z,7.01
2022-10-05T02:46:42.101Z,7.06
2022-10-05T02:49:45.472Z,7.13
2022-10-05T02:52:50.180Z,7.21
2022-10-05T02:55:56.602Z,6.77
2022-10-05T02:59:02.346Z,6.58
2022-10-05T03:02:09.804Z,6.41
2022-10-05T03:05:17.960Z,6.33
2022-10-05T03:08:22.381Z,6.53
2022-10-05T03:11:26.195Z,6.53
2022-10-05T03:14:32.362Z,6.52
2022-10-05T03:17:42.658Z,6.65
2022-10-05T03:20:48.010Z,6.76
2022-10-05T03:23:57.011Z,6.91
2022-10-05T03:27:02.560Z,7.01
2022-10-05T03:30:05.993Z,7.13
2022-10-05T03:33:14.364Z,7.08
2022-10-05T03:36:18.620Z,6.94
2022-10-05T03:39:24.000Z,6.91
2022-10-05T03:42:30.114Z,6.92
2022-10-05T03:45:35.479Z,6.69
2022-10-05T03:48:43.129Z,6.31
2022-10-05T03:51:47.169Z,6.33
2022-10-05T03:54:51.331Z,6.53
2022-10-05T03:57:55.947Z,6.65
2022-10-05T04:01:00.104Z,6.74
2022-10-05T04:04:05.530Z,6.78
2022-10-05T04:07:11.717Z,6.76
2022-10-05T04:10:16.308Z,6.82
2022-10-05T04:13:20.621Z,6.82
2022-10-05T04:16:25.431Z,6.79
2022-10-05T04:19:34.264Z,6.87
2022-10-05T04:22:38.601Z,6.98
2022-10-05T04:25:42.655Z,7.01
2022-10-05T04:28:48.478Z,6.92
2022-10-05T04:31:57.114Z,6.84
2022-10-05T04:35:08.002Z,6.89
2022-10-05T04:38:17.828Z,6.86
2022-10-05T04:41:31.754Z,6.79
2022-10-05T04:44:44.537Z,6.78
2022-10-05T04:48:04.818Z,6.83
2022-10-05T04:51:16.723Z,6.92
2022-10-05T04:54:22.925Z,6.94
2022-10-05T04:57:25.999Z,6.96
2022-10-05T05:00:32.253Z,7.01
2022-10-05T05:03:49.040Z,7.02
2022-10-05T05:06:58.505Z,6.84
2022-10-05T05:10:18.193Z,6.81
2022-10-05T05:13:32.938Z,6.75
2022-10-05T05:16:37.669Z,6.50
2022-10-05T05:19:43.950Z,5.98
2022-10-05T05:22:48.957Z,5.76
2022-10-05T05:25:56.245Z,5.92
2022-10-05T05:29:02.679Z,6.13
2022-10-05T05:32:08.578Z,6.24
2022-10-05T05:35:28.292Z,6.29
2022-10-05T05:38:33.565Z,6.45
2022-10-05T05:41:37.391Z,6.16
2022-10-05T05:44:42.764Z,5.91
2022-10-05T05:47:47.734Z,6.16
2022-10-05T05:50:55.090Z,6.36
2022-10-05T05:54:02.957Z,6.54
2022-10-05T05:57:07.968Z,6.48
2022-10-05T06:00:18.106Z,6.37
2022-10-05T06:03:22.675Z,6.49
2022-10-05T06:06:26.875Z,6.60
2022-10-05T06:09:33.373Z,6.76
2022-10-05T06:12:37.603Z,6.92
2022-10-05T06:15:41.557Z,7.04
2022-10-05T06:18:45.825Z,7.08
2022-10-05T06:21:53.441Z,7.17
2022-10-05T06:25:05.620Z,7.16
2022-10-05T06:28:09.331Z,7.25
2022-10-05T06:31:18.056Z,7.31
2022-10-05T06:34:28.648Z,7.39
2022-10-05T06:37:37.427Z,7.45
2022-10-05T06:40:45.680Z,7.54
2022-10-05T06:43:52.958Z,7.60
2022-10-05T06:47:00.689Z,7.66
2022-10-05T06:50:09.022Z,7.73
2022-10-05T06:53:20.179Z,7.76
2022-10-05T06:56:26.794Z,7.80
2022-10-05T06:59:31.372Z,7.84
2022-10-05T07:02:37.623Z,7.90
2022-10-05T07:05:48.434Z,7.94
2022-10-05T07:08:59.354Z,7.99
2022-10-05T07:12:18.182Z,8.05
2022-10-05T07:15:25.710Z,8.09
2022-10-05T07:18:34.945Z,8.13
2022-10-05T07:21:39.575Z,8.17
2022-10-05T07:24:42.511Z,8.21
2022-10-05T07:27:51.088Z,8.26
2022-10-05T07:30:56.454Z,8.30
2022-10-05T07:34:02.258Z,8.37
2022-10-05T07:37:05.585Z,8.43
2022-10-05T07:40:12.288Z,8.54
2022-10-05T07:43:21.499Z,8.65
2022-10-05T07:46:29.433Z,8.86
2022-10-05T07:49:35.335Z,9.17
2022-10-05T07:52:38.880Z,9.38
2022-10-05T07:55:43.789Z,9.56
2022-10-05T07:58:48.458Z,9.67
2022-10-05T08:01:54.418Z,9.81
2022-10-05T08:04:59.641Z,9.93
2022-10-05T08:08:04.527Z,10.05
2022-10-05T08:11:11.254Z,10.19
2022-10-05T08:14:18.298Z,10.30
2022-10-05T08:17:25.612Z,10.36
2022-10-05T08:20:31.983Z,10.40
2022-10-05T08:23:36.714Z,10.49
2022-10-05T08:26:45.267Z,10.60
2022-10-05T08:29:54.337Z,10.68
2022-10-05T08:32:59.539Z,10.83
2022-10-05T08:36:05.664Z,10.83
2022-10-05T08:39:11.610Z,10.91
2022-10-05T08:42:29.624Z,11.06
2022-10-05T08:45:52.163Z,11.12
2022-10-05T08:49:01.873Z,11.20
2022-10-05T08:52:20.928Z,11.23
2022-10-05T08:55:29.373Z,11.38
2022-10-05T08:58:46.157Z,11.49
2022-10-05T09:01:58.170Z,11.66
2022-10-05T09:05:12.946Z,11.74
2022-10-05T09:08:29.522Z,11.81
2022-10-05T09:11:34.795Z,11.94
2022-10-05T09:14:56.617Z,12.04
2022-10-05T09:18:22.172Z,12.14
2022-10-05T09:21:33.206Z,12.31
2022-10-05T09:24:48.338Z,12.38
2022-10-05T09:27:53.314Z,12.42
2022-10-05T09:30:59.117Z,12.56
2022-10-05T09:34:19.864Z,12.60
2022-10-05T09:37:51.350Z,12.60
2022-10-05T09:41:08.346Z,12.70
2022-10-05T09:44:30.876Z,12.74
2022-10-05T09:47:56.736Z,12.81
2022-10-05T09:51:19.356Z,12.97
2022-10-05T09:54:44.993Z,13.07
2022-10-05T09:58:07.166Z,13.18
2022-10-05T10:01:32.599Z,13.21
2022-10-05T10:04:50.340Z,13.30
2022-10-05T10:07:59.565Z,13.36
2022-10-05T10:11:06.038Z,13.51
2022-10-05T10:14:19.653Z,13.61
2022-10-05T10:17:32.370Z,13.70
2022-10-05T10:20:38.630Z,13.91
2022-10-05T10:23:58.199Z,13.90
2022-10-05T10:27:08.810Z,14.11
2022-10-05T10:30:27.772Z,14.15
2022-10-05T10:33:46.351Z,14.26
2022-10-05T10:37:05.373Z,14.36
2022-10-05T10:40:20.362Z,14.53
2022-10-05T10:43:31.018Z,14.62
2022-10-05T10:46:39.143Z,14.59
2022-10-05T10:49:51.162Z,14.68
2022-10-05T10:53:01.778Z,14.89
2022-10-05T10:56:13.294Z,14.97
2022-10-05T10:59:31.639Z,15.15
2022-10-05T11:02:46.623Z,15.08
2022-10-05T11:06:03.110Z,15.13
2022-10-05T11:09:12.062Z,15.16
2022-10-05T11:12:34.593Z,15.12
2022-10-05T11:15:48.414Z,15.23
2022-10-05T11:19:10.821Z,15.29
2022-10-05T11:22:29.715Z,15.38
2022-10-05T11:25:50.716Z,15.34
2022-10-05T11:29:08.082Z,15.37
2022-10-05T11:32:28.233Z,15.49
2022-10-05T11:35:51.939Z,15.64
2022-10-05T11:39:14.294Z,15.67
2022-10-05T11:42:29.709Z,15.74
2022-10-05T11:45:38.465Z,15.82
2022-10-05T11:48:50.427Z,15.86
2022-10-05T11:51:56.009Z,15.89
2022-10-05T11:55:12.623Z,15.86
2022-10-05T11:58:20.392Z,15.89
2022-10-05T12:01:26.490Z,15.95
2022-10-05T12:04:32.798Z,16.07
2022-10-05T12:07:40.397Z,16.11
2022-10-05T12:10:45.625Z,16.19
2022-10-05T12:13:52.085Z,16.31
2022-10-05T12:16:57.617Z,16.29
2022-10-05T12:20:02.055Z,16.22
2022-10-05T12:23:07.133Z,16.30
2022-10-05T12:26:11.725Z,16.33
2022-10-05T12:29:19.661Z,16.33
2022-10-05T12:32:24.060Z,16.56
2022-10-05T12:35:47.009Z,16.54
2022-10-05T12:38:52.198Z,16.56
2022-10-05T12:41:57.736Z,16.67
2022-10-05T12:45:16.399Z,16.77
2022-10-05T12:48:27.358Z,16.86
2022-10-05T12:51:34.905Z,16.87
2022-10-05T12:54:42.392Z,17.07
2022-10-05T12:57:49.164Z,17.08
2022-10-05T13:00:55.570Z,17.16
2022-10-05T13:04:04.293Z,17.21
2022-10-05T13:07:13.489Z,17.09
2022-10-05T13:10:21.823Z,17.10
2022-10-05T13:13:37.427Z,17.14
2022-10-05T13:16:45.245Z,17.18
2022-10-05T13:19:48.164Z,17.22
2022-10-05T13:22:51.942Z,17.26
2022-10-05T13:25:56.478Z,17.24
2022-10-05T13:29:02.695Z,17.24
2022-10-05T13:32:10.029Z,17.30
2022-10-05T13:35:20.081Z,17.32
2022-10-05T13:38:27.531Z,17.31
2022-10-05T13:41:34.889Z,17.38
2022-10-05T13:44:42.645Z,17.38
2022-10-05T13:47:50.426Z,17.35
2022-10-05T13:50:58.767Z,17.35
2022-10-05T13:54:03.479Z,17.35
2022-10-05T13:57:14.338Z,17.33
2022-10-05T14:00:18.799Z,17.35
2022-10-05T14:03:29.949Z,17.41
2022-10-05T14:06:32.897Z,17.36
2022-10-05T14:09:34.662Z,17.43
2022-10-05T14:12:39.082Z,17.43
2022-10-05T14:15:42.410Z,17.35
2022-10-05T14:18:52.398Z,17.34
2022-10-05T14:21:59.220Z,17.36
2022-10-05T14:25:11.601Z,17.35
2022-10-05T14:28:24.184Z,17.31
2022-10-05T14:31:30.388Z,17.34
2022-10-05T14:34:34.862Z,17.32
2022-10-05T14:37:43.267Z,17.33
2022-10-05T14:40:45.041Z,17.37
2022-10-05T14:43:50.750Z,17.33
2022-10-05T14:46:54.087Z,17.39
2022-10-05T14:50:08.433Z,17.26
2022-10-05T14:53:15.129Z,17.22
2022-10-05T14:56:24.726Z,17.18
2022-10-05T14:59:35.467Z,17.15
2022-10-05T15:03:07.280Z,17.15
2022-10-05T15:06:16.102Z,17.12
2022-10-05T15:09:24.786Z,17.06
2022-10-05T15:12:30.315Z,17.04
2022-10-05T15:15:35.727Z,16.98
2022-10-05T15:18:40.915Z,16.96
2022-10-05T15:21:51.990Z,16.91
2022-10-05T15:24:59.738Z,16.89
2022-10-05T15:28:06.171Z,16.84
2022-10-05T15:31:18.547Z,16.81
2022-10-05T15:34:25.768Z,16.80
2022-10-05T15:37:31.143Z,16.77
2022-10-05T15:40:36.721Z,16.72
2022-10-05T15:43:47.143Z,16.69
2022-10-05T15:46:52.317Z,16.63
2022-10-05T15:50:01.938Z,16.62
2022-10-05T15:53:10.500Z,16.59
2022-10-05T15:56:16.656Z,16.55
2022-10-05T15:59:25.607Z,16.50
2022-10-05T16:02:30.659Z,16.47
2022-10-05T16:05:40.609Z,16.42
2022-10-05T16:08:48.273Z,16.35
2022-10-05T16:11:53.529Z,16.31
2022-10-05T16:15:00.178Z,16.26
2022-10-05T16:18:08.994Z,16.20
2022-10-05T16:21:17.400Z,16.13
2022-10-05T16:24:25.513Z,16.06
2022-10-05T16:27:33.575Z,16.01
2022-10-05T16:30:43.876Z,15.89
2022-10-05T16:33:53.665Z,15.78
2022-10-05T16:36:59.655Z,15.67
2022-10-05T16:40:07.609Z,15.56
2022-10-05T16:43:18.777Z,15.49
2022-10-05T16:46:27.883Z,15.32
2022-10-05T16:49:35.964Z,15.18
2022-10-05T16:52:40.129Z,14.97
2022-10-05T16:55:45.911Z,14.73
2022-10-05T16:58:58.280Z,14.50
2022-10-05T17:02:04.965Z,14.15
2022-10-05T17:05:15.553Z,14.08
2022-10-05T17:08:26.875Z,14.08
2022-10-05T17:11:37.281Z,14.09
2022-10-05T17:14:43.581Z,14.09
2022-10-05T17:17:55.443Z,13.83
2022-10-05T17:21:08.660Z,13.83
2022-10-05T17:24:23.494Z,13.68
2022-10-05T17:27:31.328Z,13.53
2022-10-05T17:30:47.199Z,13.49
2022-10-05T17:34:06.956Z,13.47
2022-10-05T17:37:26.379Z,13.43
2022-10-05T17:40:33.243Z,13.28
2022-10-05T17:43:36.694Z,13.13
2022-10-05T17:46:38.947Z,12.91
2022-10-05T17:49:58.065Z,12.75
2022-10-05T17:53:19.080Z,12.67
2022-10-05T17:56:21.350Z,12.52
2022-10-05T17:59:38.942Z,12.20
2022-10-05T18:02:42.620Z,12.35
2022-10-05T18:05:44.407Z,12.27
2022-10-05T18:08:47.149Z,12.36
2022-10-05T18:12:03.575Z,12.22
2022-10-05T18:15:32.428Z,12.13
2022-10-05T18:18:53.111Z,12.19
2022-10-05T18:22:02.225Z,12.19
2022-10-05T18:25:07.686Z,12.25
2022-10-05T18:28:16.954Z,12.34
2022-10-05T18:31:25.060Z,12.34
2022-10-05T18:34:32.320Z,12.15
2022-10-05T18:37:42.935Z,11.99
2022-10-05T18:40:49.156Z,12.13
2022-10-05T18:43:58.069Z,12.17
2022-10-05T18:47:03.208Z,12.03
2022-10-05T18:50:23.108Z,12.11
2022-10-05T18:53:31.363Z,12.12
2022-10-05T18:56:37.441Z,11.93
2022-10-05T18:59:45.829Z,11.90
2022-10-05T19:02:51.132Z,12.01
2022-10-05T19:05:57.643Z,11.96
2022-10-05T19:09:07.549Z,11.68
2022-10-05T19:12:14.107Z,11.31
2022-10-05T19:15:22.138Z,11.03
2022-10-05T19:18:33.833Z,11.12
2022-10-05T19:21:41.507Z,11.27
2022-10-05T19:24:52.952Z,11.51
2022-10-05T19:28:00.521Z,11.58
2022-10-05T19:31:15.259Z,11.65
2022-10-05T19:34:24.792Z,11.76
2022-10-05T19:37:32.413Z,11.64
2022-10-05T19:40:40.701Z,11.89
2022-10-05T19:43:51.862Z,11.79
2022-10-05T19:46:56.487Z,11.81
2022-10-05T19:49:58.705Z,11.78
2022-10-05T19:53:01.921Z,11.83
2022-10-05T19:56:16.329Z,11.90
2022-10-05T19:59:18.850Z,12.02
2022-10-05T20:02:25.283Z,12.02
2022-10-05T20:05:27.653Z,11.96
2022-10-05T20:08:37.485Z,11.95
2022-10-05T20:11:50.068Z,11.38
2022-10-05T20:15:07.856Z,11.25
2022-10-05T20:18:28.002Z,11.25
2022-10-05T20:21:40.139Z,11.22
2022-10-05T20:24:49.052Z,11.30
2022-10-05T20:27:52.932Z,11.15
2022-10-05T20:30:54.615Z,11.35
2022-10-05T20:33:56.364Z,11.28
2022-10-05T20:36:58.006Z,11.11
2022-10-05T20:39:59.735Z,10.85
2022-10-05T20:43:02.739Z,10.68
2022-10-05T20:46:04.444Z,10.55
2022-10-05T20:49:06.071Z,10.49
2022-10-05T20:52:08.572Z,10.44
2022-10-05T20:55:11.122Z,10.34
2022-10-05T20:58:14.235Z,10.30
2022-10-05T21:01:16.176Z,10.32
2022-10-05T21:04:18.832Z,10.38
2022-10-05T21:07:20.652Z,10.37
2022-10-05T21:10:22.242Z,10.31
2022-10-05T21:13:25.351Z,10.36
2022-10-05T21:16:27.022Z,10.47
2022-10-05T21:19:28.856Z,10.29
2022-10-05T21:22:30.504Z,10.40
2022-10-05T21:25:32.272Z,10.49
2022-10-05T21:28:35.346Z,10.27
2022-10-05T21:31:37.595Z,10.14
2022-10-05T21:34:39.708Z,10.15
2022-10-05T21:37:41.309Z,10.35
2022-10-05T21:40:43.168Z,10.37
2022-10-05T21:43:46.201Z,10.45
2022-10-05T21:46:48.529Z,10.69
2022-10-05T21:49:50.130Z,10.77
2022-10-05T21:52:52.008Z,10.86
2022-10-05T21:55:53.710Z,10.84
2022-10-05T21:58:57.214Z,10.93
2022-10-05T22:01:59.061Z,10.71
2022-10-05T22:05:00.710Z,10.79
2022-10-05T22:08:02.551Z,10.70
2022-10-05T22:11:09.512Z,10.78
2022-10-05T22:14:14.240Z,10.63
2022-10-05T22:17:21.264Z,10.57
2022-10-05T22:20:23.302Z,10.66
2022-10-05T22:23:25.032Z,10.49
2022-10-05T22:26:26.788Z,10.55
2022-10-05T22:29:29.898Z,10.52
2022-10-05T22:32:31.605Z,10.63
2022-10-05T22:35:34.332Z,10.49
2022-10-05T22:38:35.962Z,10.42
2022-10-05T22:41:37.628Z,10.33
2022-10-05T22:44:40.694Z,10.33
2022-10-05T22:47:42.473Z,10.35
2022-10-05T22:50:44.293Z,10.41
2022-10-05T22:53:45.924Z,10.33
2022-10-05T22:56:47.518Z,10.23
2022-10-05T22:59:50.575Z,10.23
2022-10-05T23:02:52.232Z,10.27
2022-10-05T23:05:57.335Z,10.43
2022-10-05T23:08:58.989Z,10.44
2022-10-05T23:12:00.651Z,10.36
2022-10-05T23:15:03.981Z,10.23
2022-10-05T23:18:05.730Z,10.24
2022-10-05T23:21:08.352Z,10.01
2022-10-05T23:24:10.034Z,10.04
2022-10-05T23:27:11.647Z,10.08
2022-10-05T23:30:14.712Z,10.19
2022-10-05T23:33:16.309Z,10.05
2022-10-05T23:36:19.721Z,10.00
2022-10-05T23:39:21.322Z,10.04
2022-10-05T23:42:23.386Z,10.20
2022-10-05T23:45:26.443Z,10.19
2022-10-05T23:48:28.377Z,10.20
2022-10-05T23:51:30.221Z,10.12
2022-10-05T23:54:31.821Z,10.11
2022-10-05T23:57:33.454Z,10.07
